createdAt,value
2023-05-02T00:00:03.527Z,0.000000
2023-05-02T00:01:00.467Z,0.000000
2023-05-02T00:02:00.627Z,0.000000
2023-05-02T00:03:00.711Z,0.000000
2023-05-02T00:04:00.636Z,0.000000
2023-05-02T00:05:02.848Z,0.000000
2023-05-02T00:06:00.703Z,0.000000
2023-05-02T00:07:00.534Z,22.500000
2023-05-02T00:08:00.615Z,22.500000
2023-05-02T00:09:00.523Z,22.500000
2023-05-02T00:10:03.544Z,22.500000
2023-05-02T00:11:00.526Z,11.250000
2023-05-02T00:12:00.627Z,11.250000
2023-05-02T00:13:00.552Z,11.250000
2023-05-02T00:14:00.658Z,0.000000
2023-05-02T00:15:02.959Z,0.000000
2023-05-02T00:16:00.649Z,0.000000
2023-05-02T00:17:00.632Z,11.250000
2023-05-02T00:18:00.839Z,11.250000
2023-05-02T00:19:00.576Z,11.250000
2023-05-02T00:20:04.094Z,11.250000
2023-05-02T00:21:00.591Z,11.250000
2023-05-02T00:22:00.674Z,11.250000
2023-05-02T00:23:00.609Z,11.250000
2023-05-02T00:24:00.686Z,11.250000
2023-05-02T00:25:03.121Z,11.250000
2023-05-02T00:26:00.731Z,0.000000
2023-05-02T00:27:00.635Z,0.000000
2023-05-02T00:28:00.712Z,0.000000
2023-05-02T00:29:00.669Z,0.000000
2023-05-02T00:30:04.524Z,0.000000
2023-05-02T00:31:00.753Z,0.000000
2023-05-02T00:32:00.748Z,0.000000
2023-05-02T00:33:00.719Z,0.000000
2023-05-02T00:34:00.744Z,0.000000
2023-05-02T00:35:03.186Z,0.000000
2023-05-02T00:36:00.754Z,0.000000
2023-05-02T00:37:00.679Z,0.000000
2023-05-02T00:38:00.929Z,0.000000
2023-05-02T00:39:00.721Z,0.000000
2023-05-02T00:40:05.184Z,0.000000
2023-05-02T00:41:00.704Z,0.000000
2023-05-02T00:42:00.881Z,0.000000
2023-05-02T00:43:00.725Z,0.000000
2023-05-02T00:44:00.818Z,0.000000
2023-05-02T00:45:04.319Z,0.000000
2023-05-02T00:46:00.827Z,0.000000
2023-05-02T00:47:00.744Z,0.000000
2023-05-02T00:48:00.865Z,0.000000
2023-05-02T00:49:00.741Z,0.000000
2023-05-02T00:50:03.503Z,11.250000
2023-05-02T00:51:00.805Z,11.250000
2023-05-02T00:52:00.886Z,11.250000
2023-05-02T00:53:00.806Z,11.250000
2023-05-02T00:54:00.873Z,11.250000
2023-05-02T00:55:03.556Z,0.000000
2023-05-02T00:56:01.218Z,0.000000
2023-05-02T00:57:00.829Z,0.000000
2023-05-02T00:58:00.919Z,0.000000
2023-05-02T00:59:00.836Z,0.000000
2023-05-02T01:00:03.872Z,0.000000
2023-05-02T01:01:00.849Z,0.000000
2023-05-02T01:02:01.114Z,0.000000
2023-05-02T01:03:00.937Z,0.000000
2023-05-02T01:04:01.064Z,0.000000
2023-05-02T01:05:03.231Z,0.000000
2023-05-02T01:06:01.026Z,0.000000
2023-05-02T01:07:00.891Z,0.000000
2023-05-02T01:08:01.000Z,0.000000
2023-05-02T01:09:00.914Z,0.000000
2023-05-02T01:10:03.748Z,0.000000
2023-05-02T01:11:00.905Z,0.000000
2023-05-02T01:12:01.010Z,0.000000
2023-05-02T01:13:00.923Z,0.000000
2023-05-02T01:14:01.051Z,0.000000
2023-05-02T01:15:03.417Z,22.500000
2023-05-02T01:16:01.054Z,22.500000
2023-05-02T01:17:00.941Z,22.500000
2023-05-02T01:18:01.058Z,11.250000
2023-05-02T01:19:00.944Z,11.250000
2023-05-02T01:20:04.672Z,0.000000
2023-05-02T01:21:00.993Z,0.000000
2023-05-02T01:22:01.037Z,0.000000
2023-05-02T01:23:00.985Z,11.250000
2023-05-02T01:24:01.069Z,11.250000
2023-05-02T01:25:03.665Z,0.000000
2023-05-02T01:26:01.089Z,0.000000
2023-05-02T01:27:01.013Z,0.000000
2023-05-02T01:28:01.087Z,11.250000
2023-05-02T01:29:01.024Z,11.250000
2023-05-02T01:30:04.476Z,0.000000
2023-05-02T01:31:01.042Z,0.000000
2023-05-02T01:32:01.326Z,0.000000
2023-05-02T01:33:01.082Z,11.250000
2023-05-02T01:34:01.147Z,11.250000
2023-05-02T01:35:03.465Z,11.250000
2023-05-02T01:36:01.147Z,0.000000
2023-05-02T01:37:01.056Z,0.000000
2023-05-02T01:38:01.317Z,11.250000
2023-05-02T01:39:01.103Z,11.250000
2023-05-02T01:40:04.760Z,22.500000
2023-05-02T01:41:01.100Z,22.500000
2023-05-02T01:42:01.193Z,22.500000
2023-05-02T01:43:01.130Z,22.500000
2023-05-02T01:44:01.208Z,22.500000
2023-05-02T01:45:03.518Z,11.250000
2023-05-02T01:46:01.362Z,11.250000
2023-05-02T01:47:01.182Z,11.250000
2023-05-02T01:48:01.285Z,22.500000
2023-05-02T01:49:01.143Z,22.500000
2023-05-02T01:50:04.435Z,33.750000
2023-05-02T01:51:01.172Z,33.750000
2023-05-02T01:52:01.252Z,33.750000
2023-05-02T01:53:00.188Z,33.750000
2023-05-02T01:54:00.260Z,33.750000
2023-05-02T01:55:02.685Z,45.000000
2023-05-02T01:56:00.315Z,45.000000
2023-05-02T01:57:00.230Z,45.000000
2023-05-02T01:58:00.287Z,22.500000
2023-05-02T01:59:00.241Z,22.500000
2023-05-02T02:00:03.756Z,22.500000
2023-05-02T02:01:00.282Z,22.500000
2023-05-02T02:02:00.519Z,22.500000
2023-05-02T02:03:00.288Z,45.000000
2023-05-02T02:04:00.365Z,45.000000
2023-05-02T02:05:02.806Z,33.750000
2023-05-02T02:06:00.417Z,33.750000
2023-05-02T02:07:00.320Z,33.750000
2023-05-02T02:08:00.436Z,33.750000
2023-05-02T02:09:00.334Z,33.750000
2023-05-02T02:10:03.259Z,22.500000
2023-05-02T02:11:00.346Z,22.500000
2023-05-02T02:12:00.426Z,22.500000
2023-05-02T02:13:00.371Z,33.750000
2023-05-02T02:14:00.464Z,33.750000
2023-05-02T02:15:02.933Z,33.750000
2023-05-02T02:16:00.430Z,33.750000
2023-05-02T02:17:00.437Z,33.750000
2023-05-02T02:18:00.658Z,33.750000
2023-05-02T02:19:00.392Z,33.750000
2023-05-02T02:20:04.524Z,22.500000
2023-05-02T02:21:00.416Z,22.500000
2023-05-02T02:22:00.531Z,22.500000
2023-05-02T02:23:00.410Z,22.500000
2023-05-02T02:24:00.505Z,22.500000
2023-05-02T02:25:02.863Z,22.500000
2023-05-02T02:26:00.507Z,22.500000
2023-05-02T02:27:00.456Z,22.500000
2023-05-02T02:28:00.509Z,33.750000
2023-05-02T02:29:00.471Z,33.750000
2023-05-02T02:30:03.465Z,33.750000
2023-05-02T02:31:00.505Z,22.500000
2023-05-02T02:32:00.555Z,22.500000
2023-05-02T02:33:00.533Z,22.500000
2023-05-02T02:34:00.569Z,22.500000
2023-05-02T02:35:03.627Z,22.500000
2023-05-02T02:36:00.599Z,22.500000
2023-05-02T02:37:00.497Z,22.500000
2023-05-02T02:38:00.642Z,22.500000
2023-05-02T02:39:00.558Z,22.500000
2023-05-02T02:40:03.521Z,22.500000
2023-05-02T02:41:00.553Z,22.500000
2023-05-02T02:42:00.657Z,22.500000
2023-05-02T02:43:00.579Z,22.500000
2023-05-02T02:44:04.577Z,22.500000
2023-05-02T02:45:03.197Z,22.500000
2023-05-02T02:46:00.753Z,33.750000
2023-05-02T02:47:00.597Z,33.750000
2023-05-02T02:48:00.684Z,56.250000
2023-05-02T02:49:00.597Z,56.250000
2023-05-02T02:50:04.884Z,56.250000
2023-05-02T02:51:00.638Z,0.000000
2023-05-02T02:52:00.690Z,0.000000
2023-05-02T02:53:00.628Z,0.000000
2023-05-02T02:54:00.698Z,33.750000
2023-05-02T02:55:03.173Z,33.750000
2023-05-02T02:56:00.721Z,45.000000
2023-05-02T02:57:00.657Z,45.000000
2023-05-02T02:58:00.724Z,45.000000
2023-05-02T02:59:00.650Z,22.500000
2023-05-02T03:00:03.781Z,22.500000
2023-05-02T03:01:00.657Z,22.500000
2023-05-02T03:02:00.837Z,22.500000
2023-05-02T03:03:00.782Z,22.500000
2023-05-02T03:04:00.821Z,22.500000
2023-05-02T03:05:03.100Z,22.500000
2023-05-02T03:06:00.834Z,22.500000
2023-05-02T03:07:00.694Z,22.500000
2023-05-02T03:08:00.785Z,22.500000
2023-05-02T03:09:00.720Z,33.750000
2023-05-02T03:10:04.089Z,33.750000
2023-05-02T03:11:00.725Z,22.500000
2023-05-02T03:12:00.799Z,22.500000
2023-05-02T03:13:00.718Z,22.500000
2023-05-02T03:14:00.999Z,33.750000
2023-05-02T03:15:03.323Z,33.750000
2023-05-02T03:16:00.847Z,33.750000
2023-05-02T03:17:00.740Z,33.750000
2023-05-02T03:18:00.995Z,33.750000
2023-05-02T03:19:00.759Z,33.750000
2023-05-02T03:20:04.275Z,33.750000
2023-05-02T03:21:00.763Z,33.750000
2023-05-02T03:22:00.862Z,33.750000
2023-05-02T03:23:00.781Z,33.750000
2023-05-02T03:24:00.860Z,33.750000
2023-05-02T03:25:03.184Z,33.750000
2023-05-02T03:26:00.881Z,33.750000
2023-05-02T03:27:00.817Z,33.750000
2023-05-02T03:28:00.888Z,33.750000
2023-05-02T03:29:00.805Z,33.750000
2023-05-02T03:30:04.872Z,33.750000
2023-05-02T03:31:00.898Z,33.750000
2023-05-02T03:32:00.942Z,33.750000
2023-05-02T03:33:00.968Z,22.500000
2023-05-02T03:34:00.949Z,22.500000
2023-05-02T03:35:03.532Z,22.500000
2023-05-02T03:36:00.983Z,56.250000
2023-05-02T03:37:00.882Z,56.250000
2023-05-02T03:38:01.000Z,56.250000
2023-05-02T03:39:00.901Z,45.000000
2023-05-02T03:40:03.955Z,45.000000
2023-05-02T03:41:00.912Z,45.000000
2023-05-02T03:42:00.999Z,45.000000
2023-05-02T03:43:00.934Z,45.000000
2023-05-02T03:44:01.050Z,33.750000
2023-05-02T03:45:03.329Z,33.750000
2023-05-02T03:46:01.007Z,33.750000
2023-05-02T03:47:01.053Z,33.750000
2023-05-02T03:48:01.074Z,33.750000
2023-05-02T03:49:00.969Z,33.750000
2023-05-02T03:50:04.343Z,33.750000
2023-05-02T03:51:00.977Z,33.750000
2023-05-02T03:52:01.045Z,33.750000
2023-05-02T03:53:00.991Z,33.750000
2023-05-02T03:54:01.121Z,22.500000
2023-05-02T03:55:03.372Z,22.500000
2023-05-02T03:56:01.100Z,22.500000
2023-05-02T03:57:01.036Z,22.500000
2023-05-02T03:58:01.099Z,22.500000
2023-05-02T03:59:01.027Z,22.500000
2023-05-02T04:00:04.740Z,22.500000
2023-05-02T04:01:01.037Z,22.500000
2023-05-02T04:02:01.189Z,22.500000
2023-05-02T04:03:01.135Z,22.500000
2023-05-02T04:04:01.184Z,22.500000
2023-05-02T04:05:03.551Z,33.750000
2023-05-02T04:06:01.189Z,33.750000
2023-05-02T04:07:01.091Z,33.750000
2023-05-02T04:08:01.320Z,33.750000
2023-05-02T04:09:01.101Z,33.750000
2023-05-02T04:10:04.408Z,22.500000
2023-05-02T04:11:01.110Z,22.500000
2023-05-02T04:12:01.210Z,22.500000
2023-05-02T04:13:01.114Z,33.750000
2023-05-02T04:14:01.387Z,33.750000
2023-05-02T04:15:03.542Z,33.750000
2023-05-02T04:16:01.198Z,33.750000
2023-05-02T04:17:01.190Z,22.500000
2023-05-02T04:18:01.289Z,22.500000
2023-05-02T04:19:01.135Z,33.750000
2023-05-02T04:20:09.222Z,33.750000
2023-05-02T04:21:01.162Z,33.750000
2023-05-02T04:22:01.247Z,33.750000
2023-05-02T04:23:01.175Z,33.750000
2023-05-02T04:24:01.251Z,33.750000
2023-05-02T04:25:04.912Z,33.750000
2023-05-02T04:26:00.324Z,33.750000
2023-05-02T04:27:00.219Z,22.500000
2023-05-02T04:28:00.274Z,22.500000
2023-05-02T04:29:00.276Z,22.500000
2023-05-02T04:30:03.810Z,22.500000
2023-05-02T04:31:00.269Z,22.500000
2023-05-02T04:32:00.361Z,22.500000
2023-05-02T04:33:00.303Z,22.500000
2023-05-02T04:34:00.366Z,22.500000
2023-05-02T04:35:02.952Z,22.500000
2023-05-02T04:36:00.334Z,22.500000
2023-05-02T04:37:00.268Z,22.500000
2023-05-02T04:38:00.496Z,22.500000
2023-05-02T04:39:00.273Z,22.500000
2023-05-02T04:40:03.623Z,22.500000
2023-05-02T04:41:00.265Z,22.500000
2023-05-02T04:42:00.404Z,22.500000
2023-05-02T04:43:00.277Z,22.500000
2023-05-02T04:44:00.387Z,22.500000
2023-05-02T04:45:02.636Z,22.500000
2023-05-02T04:46:00.495Z,22.500000
2023-05-02T04:47:00.313Z,22.500000
2023-05-02T04:48:00.569Z,22.500000
2023-05-02T04:49:00.307Z,22.500000
2023-05-02T04:50:03.537Z,22.500000
2023-05-02T04:51:00.351Z,22.500000
2023-05-02T04:52:00.404Z,33.750000
2023-05-02T04:53:00.345Z,33.750000
2023-05-02T04:54:00.452Z,33.750000
2023-05-02T04:55:02.825Z,33.750000
2023-05-02T04:56:00.616Z,33.750000
2023-05-02T04:57:00.376Z,33.750000
2023-05-02T04:58:00.610Z,22.500000
2023-05-02T04:59:00.385Z,22.500000
2023-05-02T05:00:03.999Z,33.750000
2023-05-02T05:01:00.438Z,33.750000
2023-05-02T05:02:00.678Z,33.750000
2023-05-02T05:03:02.009Z,33.750000
2023-05-02T05:04:00.682Z,33.750000
2023-05-02T05:05:03.198Z,45.000000
2023-05-02T05:06:00.621Z,45.000000
2023-05-02T05:07:00.506Z,33.750000
2023-05-02T05:08:00.690Z,33.750000
2023-05-02T05:09:00.473Z,33.750000
2023-05-02T05:10:03.736Z,45.000000
2023-05-02T05:11:00.487Z,45.000000
2023-05-02T05:12:00.564Z,22.500000
2023-05-02T05:13:00.504Z,22.500000
2023-05-02T05:14:00.636Z,11.250000
2023-05-02T05:15:02.974Z,11.250000
2023-05-02T05:16:00.601Z,11.250000
2023-05-02T05:17:00.512Z,22.500000
2023-05-02T05:18:00.642Z,22.500000
2023-05-02T05:19:00.536Z,22.500000
2023-05-02T05:20:03.999Z,22.500000
2023-05-02T05:21:00.569Z,22.500000
2023-05-02T05:22:00.622Z,22.500000
2023-05-02T05:23:00.568Z,11.250000
2023-05-02T05:24:00.657Z,11.250000
2023-05-02T05:28:00.695Z,11.250000
2023-05-02T05:29:00.595Z,11.250000
2023-05-02T05:30:03.767Z,11.250000
2023-05-02T05:31:00.625Z,22.500000
2023-05-02T05:32:00.909Z,22.500000
2023-05-02T05:33:00.769Z,22.500000
2023-05-02T05:34:00.794Z,22.500000
2023-05-02T05:35:03.529Z,33.750000
2023-05-02T05:36:00.772Z,33.750000
2023-05-02T05:37:00.656Z,33.750000
2023-05-02T05:38:00.781Z,33.750000
2023-05-02T05:39:00.683Z,33.750000
2023-05-02T05:40:04.125Z,33.750000
2023-05-02T05:41:00.691Z,33.750000
2023-05-02T05:42:00.765Z,33.750000
2023-05-02T05:43:00.696Z,11.250000
2023-05-02T05:44:00.818Z,11.250000
2023-05-02T05:45:03.080Z,11.250000
2023-05-02T05:46:00.786Z,11.250000
2023-05-02T05:47:00.869Z,11.250000
2023-05-02T05:48:00.868Z,11.250000
2023-05-02T05:49:00.737Z,11.250000
2023-05-02T05:50:04.214Z,11.250000
2023-05-02T05:51:00.774Z,33.750000
2023-05-02T05:52:00.830Z,33.750000
2023-05-02T05:53:00.773Z,11.250000
2023-05-02T05:54:00.852Z,11.250000
2023-05-02T05:55:03.265Z,11.250000
2023-05-02T05:56:00.840Z,11.250000
2023-05-02T05:57:00.757Z,11.250000
2023-05-02T05:58:00.846Z,33.750000
2023-05-02T05:59:00.772Z,33.750000
2023-05-02T06:00:04.191Z,45.000000
2023-05-02T06:01:00.795Z,45.000000
2023-05-02T06:02:00.983Z,45.000000
2023-05-02T06:03:00.971Z,22.500000
2023-05-02T06:04:01.067Z,22.500000
2023-05-02T06:05:03.479Z,22.500000
2023-05-02T06:06:00.954Z,22.500000
2023-05-02T06:07:00.835Z,22.500000
2023-05-02T06:08:01.086Z,11.250000
2023-05-02T06:09:00.862Z,11.250000
2023-05-02T06:10:03.769Z,22.500000
2023-05-02T06:11:00.853Z,22.500000
2023-05-02T06:12:00.941Z,22.500000
2023-05-02T06:13:00.852Z,11.250000
2023-05-02T06:14:01.115Z,11.250000
2023-05-02T06:15:04.258Z,11.250000
2023-05-02T06:16:01.067Z,11.250000
2023-05-02T06:17:00.922Z,11.250000
2023-05-02T06:18:01.211Z,11.250000
2023-05-02T06:19:00.881Z,11.250000
2023-05-02T06:20:03.733Z,11.250000
2023-05-02T06:21:00.938Z,56.250000
2023-05-02T06:22:00.988Z,56.250000
2023-05-02T06:23:00.917Z,45.000000
2023-05-02T06:24:01.033Z,45.000000
2023-05-02T06:25:03.648Z,45.000000
2023-05-02T06:26:01.051Z,11.250000
2023-05-02T06:27:00.989Z,22.500000
2023-05-02T06:28:01.019Z,11.250000
2023-05-02T06:29:00.967Z,11.250000
2023-05-02T06:30:04.468Z,11.250000
2023-05-02T06:31:01.063Z,11.250000
2023-05-02T06:32:01.197Z,11.250000
2023-05-02T06:33:01.060Z,11.250000
2023-05-02T06:34:01.087Z,11.250000
2023-05-02T06:35:03.337Z,11.250000
2023-05-02T06:36:02.189Z,11.250000
2023-05-02T06:37:01.036Z,11.250000
2023-05-02T06:38:01.106Z,33.750000
2023-05-02T06:39:01.031Z,33.750000
2023-05-02T06:40:04.090Z,33.750000
2023-05-02T06:41:01.037Z,22.500000
2023-05-02T06:42:01.148Z,22.500000
2023-05-02T06:43:01.126Z,22.500000
2023-05-02T06:44:01.155Z,22.500000
2023-05-02T06:45:05.964Z,22.500000
2023-05-02T06:46:01.121Z,22.500000
2023-05-02T06:47:01.184Z,22.500000
2023-05-02T06:48:01.216Z,22.500000
2023-05-02T06:49:01.070Z,22.500000
2023-05-02T06:50:04.020Z,22.500000
2023-05-02T06:51:01.101Z,22.500000
2023-05-02T06:52:01.193Z,22.500000
2023-05-02T06:53:01.095Z,22.500000
2023-05-02T06:54:01.198Z,22.500000
2023-05-02T06:55:03.919Z,22.500000
2023-05-02T06:56:01.346Z,22.500000
2023-05-02T06:57:01.147Z,22.500000
2023-05-02T06:58:01.193Z,22.500000
2023-05-02T06:59:01.118Z,11.250000
2023-05-02T07:00:04.526Z,11.250000
2023-05-02T07:01:01.221Z,11.250000
2023-05-02T07:02:02.953Z,22.500000
2023-05-02T07:03:01.211Z,22.500000
2023-05-02T07:04:01.229Z,33.750000
2023-05-02T07:05:03.783Z,33.750000
2023-05-02T07:06:01.304Z,56.250000
2023-05-02T07:07:01.182Z,56.250000
2023-05-02T07:08:00.275Z,56.250000
2023-05-02T07:09:00.197Z,11.250000
2023-05-02T07:10:03.913Z,11.250000
2023-05-02T07:11:00.213Z,11.250000
2023-05-02T07:12:00.306Z,22.500000
2023-05-02T07:13:00.242Z,22.500000
2023-05-02T07:14:00.571Z,22.500000
2023-05-02T07:15:02.696Z,67.500000
2023-05-02T07:16:00.654Z,67.500000
2023-05-02T07:17:00.480Z,56.250000
2023-05-02T07:18:00.366Z,56.250000
2023-05-02T07:19:00.269Z,22.500000
2023-05-02T07:20:04.166Z,22.500000
2023-05-02T07:21:00.291Z,22.500000
2023-05-02T07:22:00.501Z,22.500000
2023-05-02T07:23:00.268Z,22.500000
2023-05-02T07:24:00.522Z,22.500000
2023-05-02T07:25:02.660Z,22.500000
2023-05-02T07:26:00.393Z,22.500000
2023-05-02T07:27:00.306Z,11.250000
2023-05-02T07:28:00.373Z,11.250000
2023-05-02T07:29:00.314Z,22.500000
2023-05-02T07:30:03.922Z,22.500000
2023-05-02T07:31:00.339Z,22.500000
2023-05-02T07:32:00.811Z,22.500000
2023-05-02T07:33:00.815Z,22.500000
2023-05-02T07:34:00.423Z,22.500000
2023-05-02T07:35:02.828Z,33.750000
2023-05-02T07:36:00.562Z,33.750000
2023-05-02T07:37:00.369Z,22.500000
2023-05-02T07:38:00.620Z,22.500000
2023-05-02T07:39:00.392Z,22.500000
2023-05-02T07:40:03.683Z,11.250000
2023-05-02T07:41:00.382Z,11.250000
2023-05-02T07:42:00.475Z,33.750000
2023-05-02T07:43:00.388Z,33.750000
2023-05-02T07:44:01.039Z,33.750000
2023-05-02T07:45:02.996Z,22.500000
2023-05-02T07:46:00.550Z,22.500000
2023-05-02T07:47:00.438Z,11.250000
2023-05-02T07:48:00.617Z,11.250000
2023-05-02T07:49:00.434Z,11.250000
2023-05-02T07:50:03.862Z,33.750000
2023-05-02T07:51:00.475Z,33.750000
2023-05-02T07:52:00.528Z,22.500000
2023-05-02T07:53:00.461Z,22.500000
2023-05-02T07:54:00.555Z,22.500000
2023-05-02T07:55:02.932Z,33.750000
2023-05-02T07:56:00.571Z,33.750000
2023-05-02T07:57:00.511Z,56.250000
2023-05-02T07:58:00.579Z,56.250000
2023-05-02T07:59:00.507Z,56.250000
2023-05-02T08:00:05.129Z,22.500000
2023-05-02T08:01:00.527Z,22.500000
2023-05-02T08:02:00.634Z,33.750000
2023-05-02T08:03:00.627Z,33.750000
2023-05-02T08:04:00.863Z,78.750000
2023-05-02T08:05:04.122Z,78.750000
2023-05-02T08:06:00.701Z,78.750000
2023-05-02T08:07:00.634Z,22.500000
2023-05-02T08:08:00.817Z,22.500000
2023-05-02T08:09:00.619Z,22.500000
2023-05-02T08:10:04.487Z,33.750000
2023-05-02T08:11:00.599Z,33.750000
2023-05-02T08:12:00.694Z,22.500000
2023-05-02T08:13:00.625Z,22.500000
2023-05-02T08:14:00.863Z,45.000000
2023-05-02T08:15:03.375Z,45.000000
2023-05-02T08:16:00.790Z,45.000000
2023-05-02T08:17:00.666Z,45.000000
2023-05-02T08:18:00.737Z,45.000000
2023-05-02T08:19:00.668Z,45.000000
2023-05-02T08:20:04.918Z,22.500000
2023-05-02T08:21:00.695Z,22.500000
2023-05-02T08:22:00.754Z,45.000000
2023-05-02T08:23:00.735Z,45.000000
2023-05-02T08:24:00.780Z,33.750000
2023-05-02T08:25:03.286Z,33.750000
2023-05-02T08:26:00.961Z,33.750000
2023-05-02T08:27:00.717Z,45.000000
2023-05-02T08:28:00.774Z,45.000000
2023-05-02T08:29:00.717Z,45.000000
2023-05-02T08:30:05.540Z,45.000000
2023-05-02T08:31:00.746Z,45.000000
2023-05-02T08:32:00.871Z,45.000000
2023-05-02T08:33:00.762Z,33.750000
2023-05-02T08:34:00.823Z,33.750000
2023-05-02T08:35:03.183Z,22.500000
2023-05-02T08:36:00.831Z,22.500000
2023-05-02T08:37:00.748Z,33.750000
2023-05-02T08:38:00.868Z,33.750000
2023-05-02T08:39:00.791Z,33.750000
2023-05-02T08:40:04.585Z,45.000000
2023-05-02T08:41:00.765Z,45.000000
2023-05-02T08:42:01.026Z,45.000000
2023-05-02T08:43:00.779Z,45.000000
2023-05-02T08:44:01.059Z,45.000000
2023-05-02T08:45:03.621Z,45.000000
2023-05-02T08:46:00.875Z,45.000000
2023-05-02T08:47:00.807Z,45.000000
2023-05-02T08:48:00.931Z,45.000000
2023-05-02T08:49:00.813Z,45.000000
2023-05-02T08:50:04.457Z,33.750000
2023-05-02T08:51:00.839Z,33.750000
2023-05-02T08:52:00.915Z,33.750000
2023-05-02T08:53:00.837Z,33.750000
2023-05-02T08:54:00.935Z,33.750000
2023-05-02T08:55:03.455Z,33.750000
2023-05-02T08:56:00.931Z,33.750000
2023-05-02T08:57:00.857Z,33.750000
2023-05-02T08:58:00.938Z,22.500000
2023-05-02T08:59:00.853Z,22.500000
2023-05-02T09:00:04.630Z,33.750000
2023-05-02T09:01:00.914Z,33.750000
2023-05-02T09:02:01.361Z,33.750000
2023-05-02T09:03:00.959Z,33.750000
2023-05-02T09:04:01.066Z,33.750000
2023-05-02T09:05:03.498Z,33.750000
2023-05-02T09:06:02.656Z,33.750000
2023-05-02T09:07:00.933Z,33.750000
2023-05-02T09:08:01.163Z,33.750000
2023-05-02T09:09:00.970Z,33.750000
2023-05-02T09:10:04.177Z,33.750000
2023-05-02T09:11:00.955Z,33.750000
2023-05-02T09:12:01.161Z,33.750000
2023-05-02T09:13:00.962Z,56.250000
2023-05-02T09:14:01.974Z,56.250000
2023-05-02T09:15:03.556Z,56.250000
2023-05-02T09:16:01.132Z,56.250000
2023-05-02T09:17:01.225Z,56.250000
2023-05-02T09:18:01.137Z,56.250000
2023-05-02T09:19:00.991Z,56.250000
2023-05-02T09:20:03.976Z,56.250000
2023-05-02T09:21:01.012Z,33.750000
2023-05-02T09:22:01.106Z,33.750000
2023-05-02T09:23:01.038Z,33.750000
2023-05-02T09:24:01.090Z,45.000000
2023-05-02T09:25:03.403Z,45.000000
2023-05-02T09:26:01.277Z,56.250000
2023-05-02T09:27:01.098Z,56.250000
2023-05-02T09:28:01.100Z,45.000000
2023-05-02T09:29:01.055Z,45.000000
2023-05-02T09:30:04.447Z,45.000000
2023-05-02T09:31:01.105Z,45.000000
2023-05-02T09:32:01.333Z,45.000000
2023-05-02T09:33:01.127Z,56.250000
2023-05-02T09:34:01.132Z,56.250000
2023-05-02T09:35:03.640Z,56.250000
2023-05-02T09:36:01.169Z,33.750000
2023-05-02T09:37:01.104Z,33.750000
2023-05-02T09:38:01.341Z,45.000000
2023-05-02T09:39:01.120Z,45.000000
2023-05-02T09:40:04.111Z,56.250000
2023-05-02T09:41:01.147Z,56.250000
2023-05-02T09:42:01.236Z,56.250000
2023-05-02T09:43:01.156Z,45.000000
2023-05-02T09:44:01.362Z,45.000000
2023-05-02T09:45:03.844Z,45.000000
2023-05-02T09:46:01.273Z,22.500000
2023-05-02T09:47:01.157Z,22.500000
2023-05-02T09:48:01.303Z,22.500000
2023-05-02T09:49:01.191Z,33.750000
2023-05-02T09:50:03.070Z,33.750000
2023-05-02T09:51:00.227Z,45.000000
2023-05-02T09:52:00.501Z,45.000000
2023-05-02T09:53:00.199Z,33.750000
2023-05-02T09:54:00.287Z,33.750000
2023-05-02T09:55:03.640Z,33.750000
2023-05-02T09:56:00.284Z,22.500000
2023-05-02T09:57:00.246Z,22.500000
2023-05-02T09:58:00.292Z,45.000000
2023-05-02T09:59:00.246Z,45.000000
2023-05-02T10:00:03.339Z,45.000000
2023-05-02T10:01:00.298Z,45.000000
2023-05-02T10:02:00.414Z,45.000000
2023-05-02T10:03:00.415Z,22.500000
2023-05-02T10:04:00.389Z,22.500000
2023-05-02T10:05:03.163Z,22.500000
2023-05-02T10:06:00.510Z,33.750000
2023-05-02T10:07:00.332Z,33.750000
2023-05-02T10:08:00.388Z,33.750000
2023-05-02T10:09:00.346Z,33.750000
2023-05-02T10:10:03.229Z,33.750000
2023-05-02T10:11:00.332Z,33.750000
2023-05-02T10:12:00.442Z,33.750000
2023-05-02T10:13:00.497Z,33.750000
2023-05-02T10:14:00.418Z,33.750000
2023-05-02T10:15:03.085Z,33.750000
2023-05-02T10:16:00.578Z,56.250000
2023-05-02T10:17:00.385Z,56.250000
2023-05-02T10:18:00.554Z,56.250000
2023-05-02T10:19:00.547Z,56.250000
2023-05-02T10:20:03.219Z,56.250000
2023-05-02T10:21:00.407Z,56.250000
2023-05-02T10:22:00.485Z,56.250000
2023-05-02T10:23:00.393Z,56.250000
2023-05-02T10:24:00.492Z,56.250000
2023-05-02T10:25:03.511Z,56.250000
2023-05-02T10:26:00.500Z,45.000000
2023-05-02T10:27:00.422Z,45.000000
2023-05-02T10:28:00.535Z,45.000000
2023-05-02T10:29:00.419Z,45.000000
2023-05-02T10:30:03.817Z,45.000000
2023-05-02T10:31:00.507Z,33.750000
2023-05-02T10:32:00.610Z,33.750000
2023-05-02T10:33:00.500Z,33.750000
2023-05-02T10:34:00.555Z,22.500000
2023-05-02T10:35:03.404Z,22.500000
2023-05-02T10:36:00.567Z,33.750000
2023-05-02T10:37:00.658Z,33.750000
2023-05-02T10:38:00.572Z,33.750000
2023-05-02T10:39:00.521Z,67.500000
2023-05-02T10:40:03.654Z,67.500000
2023-05-02T10:41:00.532Z,67.500000
2023-05-02T10:42:00.605Z,56.250000
2023-05-02T10:43:00.690Z,56.250000
2023-05-02T10:44:00.613Z,33.750000
2023-05-02T10:45:03.219Z,33.750000
2023-05-02T10:46:00.631Z,33.750000
2023-05-02T10:47:00.657Z,22.500000
2023-05-02T10:48:00.683Z,22.500000
2023-05-02T10:49:00.581Z,33.750000
2023-05-02T10:50:04.537Z,33.750000
2023-05-02T10:51:00.587Z,33.750000
2023-05-02T10:52:00.649Z,33.750000
2023-05-02T10:53:00.617Z,33.750000
2023-05-02T10:54:00.695Z,33.750000
2023-05-02T10:55:03.185Z,33.750000
2023-05-02T10:56:00.694Z,33.750000
2023-05-02T10:57:00.834Z,33.750000
2023-05-02T10:58:00.701Z,33.750000
2023-05-02T10:59:00.631Z,33.750000
2023-05-02T11:00:03.670Z,33.750000
2023-05-02T11:01:00.831Z,33.750000
2023-05-02T11:02:00.790Z,33.750000
2023-05-02T11:03:00.834Z,33.750000
2023-05-02T11:04:00.737Z,45.000000
2023-05-02T11:05:03.597Z,45.000000
2023-05-02T11:06:00.823Z,45.000000
2023-05-02T11:07:00.692Z,33.750000
2023-05-02T11:08:00.758Z,33.750000
2023-05-02T11:09:00.718Z,56.250000
2023-05-02T11:10:04.663Z,56.250000
2023-05-02T11:11:00.718Z,56.250000
2023-05-02T11:12:00.796Z,56.250000
2023-05-02T11:13:00.733Z,56.250000
2023-05-02T11:14:00.816Z,45.000000
2023-05-02T11:15:03.701Z,45.000000
2023-05-02T11:16:00.810Z,45.000000
2023-05-02T11:17:00.785Z,33.750000
2023-05-02T11:18:00.882Z,33.750000
2023-05-02T11:19:00.812Z,33.750000
2023-05-02T11:20:03.727Z,33.750000
2023-05-02T11:21:00.772Z,45.000000
2023-05-02T11:22:00.837Z,45.000000
2023-05-02T11:23:00.801Z,45.000000
2023-05-02T11:24:00.871Z,22.500000
2023-05-02T11:25:03.481Z,22.500000
2023-05-02T11:26:00.841Z,22.500000
2023-05-02T11:27:00.793Z,22.500000
2023-05-02T11:28:00.860Z,22.500000
2023-05-02T11:29:01.172Z,56.250000